sensor_id;sensor_type;location;lat;lon;timestamp;noise_LAeq;noise_LA_min;noise_LA_max;noise_LA01;noise_LA95
49215;Laerm;45943;53.148;8.204;2022-08-30T00:01:06;39.76;35.29;42.95;;
49215;Laerm;45943;53.148;8.204;2022-08-30T00:03:43;39.22;34.04;44.71;;
49215;Laerm;45943;53.148;8.204;2022-08-30T00:06:11;39.07;35.29;42.21;;
49215;Laerm;45943;53.148;8.204;2022-08-30T00:08:38;40.45;36.80;43.53;;
49215;Laerm;45943;53.148;8.204;2022-08-30T00:11:08;63.80;35.96;78.81;;
49215;Laerm;45943;53.148;8.204;2022-08-30T00:13:39;64.51;39.12;77.79;;
49215;Laerm;45943;53.148;8.204;2022-08-30T00:16:06;40.89;36.80;45.18;;
49215;Laerm;45943;53.148;8.204;2022-08-30T00:18:33;39.64;33.53;44.95;;
49215;Laerm;45943;53.148;8.204;2022-08-30T00:20:59;39.54;34.91;45.14;;
49215;Laerm;45943;53.148;8.204;2022-08-30T00:23:25;39.04;34.50;42.56;;
49215;Laerm;45943;53.148;8.204;2022-08-30T00:25:51;39.05;34.50;41.90;;
49215;Laerm;45943;53.148;8.204;2022-08-30T00:28:18;38.92;34.04;45.11;;
49215;Laerm;45943;53.148;8.204;2022-08-30T00:30:45;39.81;34.50;43.84;;
49215;Laerm;45943;53.148;8.204;2022-08-30T00:33:12;39.28;33.53;43.07;;
49215;Laerm;45943;53.148;8.204;2022-08-30T00:35:39;39.31;34.50;42.82;;
49215;Laerm;45943;53.148;8.204;2022-08-30T00:38:06;39.05;34.04;42.42;;
49215;Laerm;45943;53.148;8.204;2022-08-30T00:40:32;39.67;34.91;43.48;;
49215;Laerm;45943;53.148;8.204;2022-08-30T00:43:00;39.42;33.53;44.32;;
49215;Laerm;45943;53.148;8.204;2022-08-30T00:45:33;39.18;34.04;41.74;;
49215;Laerm;45943;53.148;8.204;2022-08-30T00:47:59;40.27;35.64;45.36;;
49215;Laerm;45943;53.148;8.204;2022-08-30T00:50:33;40.06;34.04;43.99;;
49215;Laerm;45943;53.148;8.204;2022-08-30T00:53:05;39.47;32.95;42.69;;
49215;Laerm;45943;53.148;8.204;2022-08-30T00:55:33;40.02;31.49;50.23;;
49215;Laerm;45943;53.148;8.204;2022-08-30T00:58:03;38.97;34.50;46.98;;
49215;Laerm;45943;53.148;8.204;2022-08-30T01:00:30;39.26;34.50;44.14;;
49215;Laerm;45943;53.148;8.204;2022-08-30T01:02:56;41.89;32.28;46.90;;
49215;Laerm;45943;53.148;8.204;2022-08-30T01:05:22;41.88;37.51;45.67;;
49215;Laerm;45943;53.148;8.204;2022-08-30T01:07:48;40.38;35.64;44.37;;
49215;Laerm;45943;53.148;8.204;2022-08-30T01:10:15;39.65;35.29;44.04;;
49215;Laerm;45943;53.148;8.204;2022-08-30T01:12:43;65.63;36.54;84.99;;
49215;Laerm;45943;53.148;8.204;2022-08-30T01:15:11;66.76;37.92;84.98;;
49215;Laerm;45943;53.148;8.204;2022-08-30T01:17:42;66.58;37.16;80.28;;
49215;Laerm;45943;53.148;8.204;2022-08-30T01:20:14;61.31;39.41;80.41;;
49215;Laerm;45943;53.148;8.204;2022-08-30T01:25:18;40.36;34.91;60.46;;
49215;Laerm;45943;53.148;8.204;2022-08-30T01:28:06;40.48;35.64;48.12;;
49215;Laerm;45943;53.148;8.204;2022-08-30T01:30:34;40.45;35.64;44.18;;
49215;Laerm;45943;53.148;8.204;2022-08-30T01:33:05;40.09;35.29;42.95;;
49215;Laerm;45943;53.148;8.204;2022-08-30T01:35:42;67.29;37.72;77.00;;
49215;Laerm;45943;53.148;8.204;2022-08-30T01:38:10;41.48;35.29;48.30;;
49215;Laerm;45943;53.148;8.204;2022-08-30T01:40:37;40.23;35.96;46.89;;
49215;Laerm;45943;53.148;8.204;2022-08-30T01:43:03;40.61;36.54;43.79;;
49215;Laerm;45943;53.148;8.204;2022-08-30T01:45:29;40.26;35.96;44.09;;
49215;Laerm;45943;53.148;8.204;2022-08-30T01:47:55;39.80;34.91;42.76;;
49215;Laerm;45943;53.148;8.204;2022-08-30T01:50:21;41.36;35.96;43.89;;
49215;Laerm;45943;53.148;8.204;2022-08-30T01:52:47;41.35;35.96;45.25;;
49215;Laerm;45943;53.148;8.204;2022-08-30T01:55:13;40.47;35.64;45.29;;
49215;Laerm;45943;53.148;8.204;2022-08-30T01:57:39;41.26;35.96;46.70;;
49215;Laerm;45943;53.148;8.204;2022-08-30T02:00:07;40.58;35.29;45.40;;
49215;Laerm;45943;53.148;8.204;2022-08-30T02:02:33;40.70;35.96;44.87;;
49215;Laerm;45943;53.148;8.204;2022-08-30T02:04:59;42.05;34.91;62.91;;
49215;Laerm;45943;53.148;8.204;2022-08-30T02:07:25;40.39;34.50;47.08;;
49215;Laerm;45943;53.148;8.204;2022-08-30T02:09:52;40.59;36.26;45.29;;
49215;Laerm;45943;53.148;8.204;2022-08-30T02:12:19;40.17;36.26;42.89;;
49215;Laerm;45943;53.148;8.204;2022-08-30T02:14:45;41.51;37.29;48.08;;
49215;Laerm;45943;53.148;8.204;2022-08-30T02:17:13;40.30;35.64;43.53;;
49215;Laerm;45943;53.148;8.204;2022-08-30T02:19:40;41.62;37.51;46.75;;
49215;Laerm;45943;53.148;8.204;2022-08-30T02:22:06;41.35;37.51;53.03;;
49215;Laerm;45943;53.148;8.204;2022-08-30T02:24:32;41.63;36.80;44.67;;
49215;Laerm;45943;53.148;8.204;2022-08-30T02:26:58;41.64;36.80;46.89;;
49215;Laerm;45943;53.148;8.204;2022-08-30T02:29:24;41.33;35.96;50.55;;
49215;Laerm;45943;53.148;8.204;2022-08-30T02:31:50;42.46;37.72;47.44;;
49215;Laerm;45943;53.148;8.204;2022-08-30T02:34:17;42.28;37.51;48.88;;
49215;Laerm;45943;53.148;8.204;2022-08-30T02:36:44;42.26;35.29;46.20;;
49215;Laerm;45943;53.148;8.204;2022-08-30T02:39:11;42.06;37.72;45.93;;
49215;Laerm;45943;53.148;8.204;2022-08-30T02:41:38;41.97;37.29;45.71;;
49215;Laerm;45943;53.148;8.204;2022-08-30T02:44:05;42.51;38.12;46.02;;
49215;Laerm;45943;53.148;8.204;2022-08-30T02:46:32;42.01;38.12;45.71;;
49215;Laerm;45943;53.148;8.204;2022-08-30T02:48:58;43.81;40.73;52.66;;
49215;Laerm;45943;53.148;8.204;2022-08-30T02:51:25;67.41;39.81;79.14;;
49215;Laerm;45943;53.148;8.204;2022-08-30T02:53:51;43.25;37.92;46.67;;
49215;Laerm;45943;53.148;8.204;2022-08-30T02:56:17;42.36;38.65;44.75;;
49215;Laerm;45943;53.148;8.204;2022-08-30T02:58:43;42.89;38.65;48.50;;
49215;Laerm;45943;53.148;8.204;2022-08-30T03:01:12;42.99;38.65;46.26;;
49215;Laerm;45943;53.148;8.204;2022-08-30T03:03:40;42.48;38.30;47.10;;
49215;Laerm;45943;53.148;8.204;2022-08-30T03:06:06;42.37;38.48;45.71;;
49215;Laerm;45943;53.148;8.204;2022-08-30T03:08:32;43.78;39.81;54.49;;
49215;Laerm;45943;53.148;8.204;2022-08-30T03:10:59;42.89;39.41;47.64;;
49215;Laerm;45943;53.148;8.204;2022-08-30T03:13:25;42.92;39.68;45.80;;
49215;Laerm;45943;53.148;8.204;2022-08-30T03:15:51;43.18;39.27;46.87;;
49215;Laerm;45943;53.148;8.204;2022-08-30T03:18:18;45.39;38.81;69.11;;
49215;Laerm;45943;53.148;8.204;2022-08-30T03:20:46;59.16;40.06;75.49;;
49215;Laerm;45943;53.148;8.204;2022-08-30T03:23:13;43.03;38.48;54.81;;
49215;Laerm;45943;53.148;8.204;2022-08-30T03:25:39;42.91;40.06;46.26;;
49215;Laerm;45943;53.148;8.204;2022-08-30T03:28:06;42.43;38.97;47.90;;
49215;Laerm;45943;53.148;8.204;2022-08-30T03:30:32;43.48;40.63;47.47;;
49215;Laerm;45943;53.148;8.204;2022-08-30T03:32:59;44.11;41.03;47.60;;
49215;Laerm;45943;53.148;8.204;2022-08-30T03:35:26;44.24;41.31;56.63;;
49215;Laerm;45943;53.148;8.204;2022-08-30T03:37:52;44.10;41.90;46.26;;
49215;Laerm;45943;53.148;8.204;2022-08-30T03:40:20;56.69;41.82;74.24;;
49215;Laerm;45943;53.148;8.204;2022-08-30T03:42:47;43.84;41.58;50.77;;
49215;Laerm;45943;53.148;8.204;2022-08-30T03:45:15;43.93;41.31;49.92;;
49215;Laerm;45943;53.148;8.204;2022-08-30T03:47:42;44.08;41.13;61.74;;
49215;Laerm;45943;53.148;8.204;2022-08-30T03:50:08;44.35;41.31;60.09;;
49215;Laerm;45943;53.148;8.204;2022-08-30T03:52:34;48.01;41.31;72.15;;
49215;Laerm;45943;53.148;8.204;2022-08-30T03:55:00;45.58;40.18;66.28;;
49215;Laerm;45943;53.148;8.204;2022-08-30T03:57:27;45.07;40.63;70.42;;
49215;Laerm;45943;53.148;8.204;2022-08-30T03:59:53;45.94;41.03;74.06;;
49215;Laerm;45943;53.148;8.204;2022-08-30T04:02:19;44.36;40.73;54.74;;
49215;Laerm;45943;53.148;8.204;2022-08-30T04:04:45;44.30;41.22;56.42;;
49215;Laerm;45943;53.148;8.204;2022-08-30T04:07:11;44.31;40.06;59.44;;
49215;Laerm;45943;53.148;8.204;2022-08-30T04:09:37;44.09;41.74;52.15;;
49215;Laerm;45943;53.148;8.204;2022-08-30T04:12:03;44.15;41.66;52.40;;
49215;Laerm;45943;53.148;8.204;2022-08-30T04:14:29;43.99;41.58;49.23;;
49215;Laerm;45943;53.148;8.204;2022-08-30T04:16:55;44.09;41.82;48.92;;
49215;Laerm;45943;53.148;8.204;2022-08-30T04:19:23;46.59;42.42;67.90;;
49215;Laerm;45943;53.148;8.204;2022-08-30T04:21:48;45.31;42.63;52.29;;
49215;Laerm;45943;53.148;8.204;2022-08-30T04:24:15;57.34;42.76;71.43;;
49215;Laerm;45943;53.148;8.204;2022-08-30T04:26:41;50.91;43.25;74.63;;
49215;Laerm;45943;53.148;8.204;2022-08-30T04:29:08;44.83;42.76;58.59;;
49215;Laerm;45943;53.148;8.204;2022-08-30T04:31:36;45.23;42.35;60.05;;
49215;Laerm;45943;53.148;8.204;2022-08-30T04:34:02;45.50;43.31;56.50;;
49215;Laerm;45943;53.148;8.204;2022-08-30T04:36:28;44.97;43.13;51.46;;
49215;Laerm;45943;53.148;8.204;2022-08-30T04:38:54;45.65;43.13;53.78;;
49215;Laerm;45943;53.148;8.204;2022-08-30T04:41:20;56.53;43.99;72.00;;
49215;Laerm;45943;53.148;8.204;2022-08-30T04:43:49;45.77;43.48;50.18;;
49215;Laerm;45943;53.148;8.204;2022-08-30T04:46:16;46.04;43.19;57.60;;
49215;Laerm;45943;53.148;8.204;2022-08-30T04:48:43;49.30;43.36;70.92;;
49215;Laerm;45943;53.148;8.204;2022-08-30T04:51:13;59.90;44.18;75.70;;
49215;Laerm;45943;53.148;8.204;2022-08-30T04:53:41;48.10;43.19;71.43;;
49215;Laerm;45943;53.148;8.204;2022-08-30T04:56:16;46.95;43.53;68.80;;
49215;Laerm;45943;53.148;8.204;2022-08-30T04:58:44;46.25;43.07;66.61;;
49215;Laerm;45943;53.148;8.204;2022-08-30T05:01:16;45.71;43.07;52.41;;
49215;Laerm;45943;53.148;8.204;2022-08-30T05:03:42;45.60;43.69;51.30;;
49215;Laerm;45943;53.148;8.204;2022-08-30T05:06:11;46.48;43.31;59.96;;
49215;Laerm;45943;53.148;8.204;2022-08-30T05:08:37;47.48;43.94;56.55;;
49215;Laerm;45943;53.148;8.204;2022-08-30T05:11:05;45.38;42.82;54.10;;
49215;Laerm;45943;53.148;8.204;2022-08-30T05:13:33;45.36;43.13;53.13;;
49215;Laerm;45943;53.148;8.204;2022-08-30T05:15:59;49.43;42.56;60.87;;
49215;Laerm;45943;53.148;8.204;2022-08-30T05:18:26;44.78;42.69;53.34;;
49215;Laerm;45943;53.148;8.204;2022-08-30T05:21:11;46.96;42.63;63.73;;
49215;Laerm;45943;53.148;8.204;2022-08-30T05:23:38;60.44;44.04;76.95;;
49215;Laerm;45943;53.148;8.204;2022-08-30T05:26:07;58.19;43.07;84.17;;
49215;Laerm;45943;53.148;8.204;2022-08-30T05:28:34;57.33;52.57;77.75;;
49215;Laerm;45943;53.148;8.204;2022-08-30T05:31:01;59.37;54.32;84.06;;
49215;Laerm;45943;53.148;8.204;2022-08-30T05:33:28;58.64;54.18;68.63;;
49215;Laerm;45943;53.148;8.204;2022-08-30T05:35:54;58.10;54.04;80.09;;
49215;Laerm;45943;53.148;8.204;2022-08-30T05:38:20;57.52;54.29;73.60;;
49215;Laerm;45943;53.148;8.204;2022-08-30T05:40:46;62.39;53.82;83.94;;
49215;Laerm;45943;53.148;8.204;2022-08-30T05:43:12;57.32;54.45;70.76;;
49215;Laerm;45943;53.148;8.204;2022-08-30T05:45:39;57.32;53.98;76.58;;
49215;Laerm;45943;53.148;8.204;2022-08-30T05:48:05;57.07;54.11;73.39;;
49215;Laerm;45943;53.148;8.204;2022-08-30T05:50:31;56.98;52.95;70.33;;
49215;Laerm;45943;53.148;8.204;2022-08-30T05:52:57;56.67;52.86;74.40;;
49215;Laerm;45943;53.148;8.204;2022-08-30T05:55:23;57.26;53.65;78.42;;
49215;Laerm;45943;53.148;8.204;2022-08-30T05:57:49;57.56;54.50;64.22;;
49215;Laerm;45943;53.148;8.204;2022-08-30T06:00:17;60.78;54.59;77.58;;
49215;Laerm;45943;53.148;8.204;2022-08-30T06:02:43;57.68;54.99;66.14;;
49215;Laerm;45943;53.148;8.204;2022-08-30T06:05:10;58.13;54.43;78.79;;
49215;Laerm;45943;53.148;8.204;2022-08-30T06:07:36;57.49;54.43;67.77;;
49215;Laerm;45943;53.148;8.204;2022-08-30T06:10:03;63.89;55.60;85.88;;
49215;Laerm;45943;53.148;8.204;2022-08-30T06:12:31;66.26;54.79;84.15;;
49215;Laerm;45943;53.148;8.204;2022-08-30T06:14:57;58.96;54.11;84.46;;
49215;Laerm;45943;53.148;8.204;2022-08-30T06:17:23;57.33;53.98;66.34;;
49215;Laerm;45943;53.148;8.204;2022-08-30T06:19:49;57.33;54.06;68.28;;
49215;Laerm;45943;53.148;8.204;2022-08-30T06:22:15;58.50;54.22;77.73;;
49215;Laerm;45943;53.148;8.204;2022-08-30T06:24:41;59.82;54.96;73.18;;
49215;Laerm;45943;53.148;8.204;2022-08-30T06:27:08;70.71;55.63;81.83;;
49215;Laerm;45943;53.148;8.204;2022-08-30T06:29:34;63.43;55.20;79.32;;
49215;Laerm;45943;53.148;8.204;2022-08-30T06:32:00;59.16;55.10;72.84;;
49215;Laerm;45943;53.148;8.204;2022-08-30T06:34:26;58.01;55.03;65.84;;
49215;Laerm;45943;53.148;8.204;2022-08-30T06:36:52;58.60;54.84;76.30;;
49215;Laerm;45943;53.148;8.204;2022-08-30T06:39:18;71.26;54.91;83.32;;
49215;Laerm;45943;53.148;8.204;2022-08-30T06:41:44;78.53;55.03;84.87;;
49215;Laerm;45943;53.148;8.204;2022-08-30T06:44:10;70.02;54.46;81.68;;
49215;Laerm;45943;53.148;8.204;2022-08-30T06:46:37;58.24;54.98;70.62;;
49215;Laerm;45943;53.148;8.204;2022-08-30T06:49:04;59.40;54.19;72.32;;
49215;Laerm;45943;53.148;8.204;2022-08-30T06:51:34;59.32;54.40;82.12;;
49215;Laerm;45943;53.148;8.204;2022-08-30T06:54:01;58.58;54.63;73.64;;
49215;Laerm;45943;53.148;8.204;2022-08-30T06:56:27;58.38;54.75;72.95;;
49215;Laerm;45943;53.148;8.204;2022-08-30T06:58:53;59.10;55.31;70.74;;
49215;Laerm;45943;53.148;8.204;2022-08-30T07:01:25;58.30;54.20;70.19;;
49215;Laerm;45943;53.148;8.204;2022-08-30T07:03:52;58.23;54.76;72.55;;
49215;Laerm;45943;53.148;8.204;2022-08-30T07:06:19;58.72;54.08;75.38;;
49215;Laerm;45943;53.148;8.204;2022-08-30T07:08:45;58.69;54.53;77.91;;
49215;Laerm;45943;53.148;8.204;2022-08-30T07:11:12;57.64;54.21;63.77;;
49215;Laerm;45943;53.148;8.204;2022-08-30T07:13:38;60.95;54.21;77.26;;
49215;Laerm;45943;53.148;8.204;2022-08-30T07:16:09;59.77;55.19;76.93;;
49215;Laerm;45943;53.148;8.204;2022-08-30T07:18:35;58.51;55.13;72.39;;
49215;Laerm;45943;53.148;8.204;2022-08-30T07:21:32;61.54;54.45;77.44;;
49215;Laerm;45943;53.148;8.204;2022-08-30T07:23:58;57.76;54.33;68.22;;
49215;Laerm;45943;53.148;8.204;2022-08-30T07:26:32;59.42;54.60;74.68;;
49215;Laerm;45943;53.148;8.204;2022-08-30T07:28:58;58.82;55.26;73.91;;
49215;Laerm;45943;53.148;8.204;2022-08-30T07:31:24;58.61;55.26;63.72;;
49215;Laerm;45943;53.148;8.204;2022-08-30T07:33:51;58.56;54.57;64.80;;
49215;Laerm;45943;53.148;8.204;2022-08-30T07:36:17;58.52;54.83;70.73;;
49215;Laerm;45943;53.148;8.204;2022-08-30T07:38:48;58.51;53.87;62.48;;
49215;Laerm;45943;53.148;8.204;2022-08-30T07:41:16;61.83;54.97;75.91;;
49215;Laerm;45943;53.148;8.204;2022-08-30T07:43:43;58.68;54.51;63.10;;
49215;Laerm;45943;53.148;8.204;2022-08-30T07:46:09;64.52;54.77;80.12;;
49215;Laerm;45943;53.148;8.204;2022-08-30T07:48:35;58.51;55.28;65.30;;
49215;Laerm;45943;53.148;8.204;2022-08-30T07:51:01;58.24;54.38;64.53;;
49215;Laerm;45943;53.148;8.204;2022-08-30T07:53:30;59.08;55.72;65.10;;
49215;Laerm;45943;53.148;8.204;2022-08-30T07:55:57;59.21;56.03;71.85;;
49215;Laerm;45943;53.148;8.204;2022-08-30T07:58:23;58.87;55.64;69.92;;
49215;Laerm;45943;53.148;8.204;2022-08-30T08:00:49;58.50;55.24;65.19;;
49215;Laerm;45943;53.148;8.204;2022-08-30T08:03:15;58.70;54.76;68.90;;
49215;Laerm;45943;53.148;8.204;2022-08-30T08:05:44;58.49;54.92;62.75;;
49215;Laerm;45943;53.148;8.204;2022-08-30T08:08:11;58.72;54.28;66.11;;
49215;Laerm;45943;53.148;8.204;2022-08-30T08:10:39;59.22;55.12;73.53;;
49215;Laerm;45943;53.148;8.204;2022-08-30T08:13:05;58.62;54.93;67.93;;
49215;Laerm;45943;53.148;8.204;2022-08-30T08:15:31;59.34;54.83;78.20;;
49215;Laerm;45943;53.148;8.204;2022-08-30T08:17:57;61.47;55.50;78.39;;
49215;Laerm;45943;53.148;8.204;2022-08-30T08:20:24;60.17;55.45;73.22;;
49215;Laerm;45943;53.148;8.204;2022-08-30T08:22:51;62.32;55.81;75.29;;
49215;Laerm;45943;53.148;8.204;2022-08-30T08:25:17;58.25;54.44;68.88;;
49215;Laerm;45943;53.148;8.204;2022-08-30T08:27:49;58.40;54.44;68.46;;
49215;Laerm;45943;53.148;8.204;2022-08-30T08:30:17;58.50;54.62;67.98;;
49215;Laerm;45943;53.148;8.204;2022-08-30T08:32:43;59.18;54.64;73.99;;
49215;Laerm;45943;53.148;8.204;2022-08-30T08:35:09;59.87;54.50;75.11;;
49215;Laerm;45943;53.148;8.204;2022-08-30T08:37:37;60.36;54.53;76.49;;
49215;Laerm;45943;53.148;8.204;2022-08-30T08:40:05;60.41;54.52;86.41;;
49215;Laerm;45943;53.148;8.204;2022-08-30T08:45:12;64.00;57.30;81.58;;
49215;Laerm;45943;53.148;8.204;2022-08-30T08:47:55;62.70;57.10;82.96;;
49215;Laerm;45943;53.148;8.204;2022-08-30T08:50:23;59.66;54.41;73.94;;
49215;Laerm;45943;53.148;8.204;2022-08-30T08:53:22;58.34;54.50;66.13;;
49215;Laerm;45943;53.148;8.204;2022-08-30T08:56:02;59.78;53.98;71.49;;
49215;Laerm;45943;53.148;8.204;2022-08-30T08:58:34;59.73;54.62;72.56;;
49215;Laerm;45943;53.148;8.204;2022-08-30T09:01:07;61.70;54.75;72.43;;
49215;Laerm;45943;53.148;8.204;2022-08-30T09:03:34;58.85;53.49;66.37;;
49215;Laerm;45943;53.148;8.204;2022-08-30T09:08:43;58.82;53.68;70.38;;
49215;Laerm;45943;53.148;8.204;2022-08-30T09:11:19;62.10;53.01;79.98;;
49215;Laerm;45943;53.148;8.204;2022-08-30T09:13:48;58.41;54.00;75.23;;
49215;Laerm;45943;53.148;8.204;2022-08-30T09:19:41;65.43;52.59;79.76;;
49215;Laerm;45943;53.148;8.204;2022-08-30T09:25:17;64.01;60.20;76.77;;
49215;Laerm;45943;53.148;8.204;2022-08-30T09:27:48;61.87;52.87;81.78;;
49215;Laerm;45943;53.148;8.204;2022-08-30T09:30:18;62.40;54.25;88.52;;
49215;Laerm;45943;53.148;8.204;2022-08-30T09:38:04;61.36;54.72;79.42;;
49215;Laerm;45943;53.148;8.204;2022-08-30T09:40:37;62.48;54.94;75.27;;
49215;Laerm;45943;53.148;8.204;2022-08-30T09:45:49;63.12;57.27;76.28;;
49215;Laerm;45943;53.148;8.204;2022-08-30T09:48:33;62.62;53.62;77.72;;
49215;Laerm;45943;53.148;8.204;2022-08-30T09:53:48;60.13;54.15;80.22;;
49215;Laerm;45943;53.148;8.204;2022-08-30T10:14:58;61.27;53.78;78.41;;
49215;Laerm;45943;53.148;8.204;2022-08-30T10:25:39;63.27;57.40;73.34;;
49215;Laerm;45943;53.148;8.204;2022-08-30T10:28:34;63.30;56.57;76.70;;
49215;Laerm;45943;53.148;8.204;2022-08-30T10:31:07;62.40;55.67;79.64;;
49215;Laerm;45943;53.148;8.204;2022-08-30T10:33:41;65.06;53.78;83.77;;
49215;Laerm;45943;53.148;8.204;2022-08-30T10:36:11;61.51;54.69;80.81;;
49215;Laerm;45943;53.148;8.204;2022-08-30T10:38:40;64.17;54.42;81.00;;
49215;Laerm;45943;53.148;8.204;2022-08-30T10:43:54;61.13;53.43;77.47;;
49215;Laerm;45943;53.148;8.204;2022-08-30T10:46:47;60.93;54.39;70.10;;
49215;Laerm;45943;53.148;8.204;2022-08-30T10:49:18;61.42;55.21;73.83;;
49215;Laerm;45943;53.148;8.204;2022-08-30T10:51:49;61.59;55.18;69.24;;
49215;Laerm;45943;53.148;8.204;2022-08-30T10:57:01;60.36;54.03;72.09;;
49215;Laerm;45943;53.148;8.204;2022-08-30T10:59:27;60.64;54.06;71.92;;
49215;Laerm;45943;53.148;8.204;2022-08-30T11:05:06;60.19;53.60;78.04;;
49215;Laerm;45943;53.148;8.204;2022-08-30T11:07:45;56.53;53.23;64.28;;
49215;Laerm;45943;53.148;8.204;2022-08-30T11:10:29;59.37;52.76;76.49;;
49215;Laerm;45943;53.148;8.204;2022-08-30T11:13:10;61.26;53.18;89.32;;
49215;Laerm;45943;53.148;8.204;2022-08-30T11:16:09;57.84;53.56;78.13;;
49215;Laerm;45943;53.148;8.204;2022-08-30T11:18:54;56.61;53.33;64.36;;
49215;Laerm;45943;53.148;8.204;2022-08-30T11:21:36;57.27;53.54;74.98;;
49215;Laerm;45943;53.148;8.204;2022-08-30T11:24:15;61.63;53.55;74.04;;
49215;Laerm;45943;53.148;8.204;2022-08-30T11:29:43;56.50;52.84;65.02;;
49215;Laerm;45943;53.148;8.204;2022-08-30T11:40:08;62.17;53.96;77.16;;
49215;Laerm;45943;53.148;8.204;2022-08-30T11:42:40;63.62;54.19;75.24;;
49215;Laerm;45943;53.148;8.204;2022-08-30T11:58:19;62.45;55.33;89.26;;
49215;Laerm;45943;53.148;8.204;2022-08-30T12:01:12;57.80;40.41;83.21;;
49215;Laerm;45943;53.148;8.204;2022-08-30T12:03:37;58.37;41.03;70.38;;
49215;Laerm;45943;53.148;8.204;2022-08-30T12:06:05;51.06;40.63;64.62;;
49215;Laerm;45943;53.148;8.204;2022-08-30T12:11:06;57.81;40.06;67.49;;
49215;Laerm;45943;53.148;8.204;2022-08-30T12:13:53;48.37;38.97;64.68;;
49215;Laerm;45943;53.148;8.204;2022-08-30T12:16:34;59.77;54.86;67.50;;
49215;Laerm;45943;53.148;8.204;2022-08-30T12:19:24;57.94;38.97;62.59;;
49215;Laerm;45943;53.148;8.204;2022-08-30T12:22:00;59.22;55.34;65.39;;
49215;Laerm;45943;53.148;8.204;2022-08-30T12:24:37;64.23;55.53;70.69;;
49215;Laerm;45943;53.148;8.204;2022-08-30T12:27:27;62.60;53.79;85.86;;
49215;Laerm;45943;53.148;8.204;2022-08-30T12:29:57;59.32;46.29;67.36;;
49215;Laerm;45943;53.148;8.204;2022-08-30T12:32:28;61.03;57.02;72.73;;
49215;Laerm;45943;53.148;8.204;2022-08-30T12:34:56;60.55;41.14;70.06;;
49215;Laerm;45943;53.148;8.204;2022-08-30T12:37:27;61.69;40.41;74.69;;
49215;Laerm;45943;53.148;8.204;2022-08-30T12:42:35;57.35;46.17;80.93;;
49215;Laerm;45943;53.148;8.204;2022-08-30T12:45:05;54.89;43.94;71.30;;
49215;Laerm;45943;53.148;8.204;2022-08-30T12:47:42;60.07;50.66;78.15;;
49215;Laerm;45943;53.148;8.204;2022-08-30T12:50:13;61.44;50.58;75.73;;
49215;Laerm;45943;53.148;8.204;2022-08-30T12:52:46;60.77;40.18;82.44;;
49215;Laerm;45943;53.148;8.204;2022-08-30T12:55:20;53.13;39.41;65.37;;
49215;Laerm;45943;53.148;8.204;2022-08-30T12:58:05;60.92;41.22;76.83;;
49215;Laerm;45943;53.148;8.204;2022-08-30T13:00:38;61.49;41.03;79.50;;
49215;Laerm;45943;53.148;8.204;2022-08-30T13:03:31;56.41;40.18;78.45;;
49215;Laerm;45943;53.148;8.204;2022-08-30T13:05:57;54.48;39.27;68.77;;
49215;Laerm;45943;53.148;8.204;2022-08-30T13:08:30;57.14;37.92;73.30;;
49215;Laerm;45943;53.148;8.204;2022-08-30T13:11:10;62.93;56.87;74.21;;
49215;Laerm;45943;53.148;8.204;2022-08-30T13:13:43;62.60;56.78;77.73;;
49215;Laerm;45943;53.148;8.204;2022-08-30T13:18:43;60.11;54.40;70.84;;
49215;Laerm;45943;53.148;8.204;2022-08-30T13:21:33;60.53;54.58;71.10;;
49215;Laerm;45943;53.148;8.204;2022-08-30T13:24:02;62.17;55.13;76.21;;
49215;Laerm;45943;53.148;8.204;2022-08-30T13:26:33;62.23;55.38;74.92;;
49215;Laerm;45943;53.148;8.204;2022-08-30T13:29:03;59.73;54.97;70.67;;
49215;Laerm;45943;53.148;8.204;2022-08-30T13:31:30;60.63;55.04;69.59;;
49215;Laerm;45943;53.148;8.204;2022-08-30T13:33:57;61.46;54.88;74.73;;
49215;Laerm;45943;53.148;8.204;2022-08-30T13:36:48;60.56;55.05;70.87;;
49215;Laerm;45943;53.148;8.204;2022-08-30T13:39:15;76.43;55.03;83.64;;
49215;Laerm;45943;53.148;8.204;2022-08-30T13:41:41;72.18;56.45;83.05;;
49215;Laerm;45943;53.148;8.204;2022-08-30T13:44:08;61.03;55.95;69.20;;
49215;Laerm;45943;53.148;8.204;2022-08-30T13:46:34;60.41;55.16;73.51;;
49215;Laerm;45943;53.148;8.204;2022-08-30T13:49:04;60.02;54.82;69.64;;
49215;Laerm;45943;53.148;8.204;2022-08-30T13:51:31;60.81;55.32;72.74;;
49215;Laerm;45943;53.148;8.204;2022-08-30T13:53:57;64.55;56.00;72.97;;
49215;Laerm;45943;53.148;8.204;2022-08-30T13:56:24;61.62;55.39;72.42;;
49215;Laerm;45943;53.148;8.204;2022-08-30T13:58:50;59.80;55.37;65.38;;
49215;Laerm;45943;53.148;8.204;2022-08-30T14:01:16;59.71;55.22;65.04;;
49215;Laerm;45943;53.148;8.204;2022-08-30T14:03:42;60.04;55.85;66.95;;
49215;Laerm;45943;53.148;8.204;2022-08-30T14:06:08;61.51;56.42;71.85;;
49215;Laerm;45943;53.148;8.204;2022-08-30T14:08:34;61.62;56.18;74.11;;
49215;Laerm;45943;53.148;8.204;2022-08-30T14:11:02;61.06;55.71;71.11;;
49215;Laerm;45943;53.148;8.204;2022-08-30T14:13:28;64.99;55.60;87.65;;
49215;Laerm;45943;53.148;8.204;2022-08-30T14:15:56;60.07;55.41;77.23;;
49215;Laerm;45943;53.148;8.204;2022-08-30T14:18:24;60.46;55.20;68.20;;
49215;Laerm;45943;53.148;8.204;2022-08-30T14:20:50;60.84;55.69;75.77;;
49215;Laerm;45943;53.148;8.204;2022-08-30T14:23:16;64.08;54.97;69.52;;
49215;Laerm;45943;53.148;8.204;2022-08-30T14:25:42;59.93;55.03;65.65;;
49215;Laerm;45943;53.148;8.204;2022-08-30T14:28:08;59.58;55.70;71.37;;
49215;Laerm;45943;53.148;8.204;2022-08-30T14:30:34;59.76;54.61;70.73;;
49215;Laerm;45943;53.148;8.204;2022-08-30T14:33:00;59.70;54.50;72.33;;
49215;Laerm;45943;53.148;8.204;2022-08-30T14:35:26;61.05;56.91;68.69;;
49215;Laerm;45943;53.148;8.204;2022-08-30T14:37:52;62.04;54.96;73.21;;
49215;Laerm;45943;53.148;8.204;2022-08-30T14:40:18;65.55;60.42;76.26;;
49215;Laerm;45943;53.148;8.204;2022-08-30T14:42:44;61.64;53.72;71.86;;
49215;Laerm;45943;53.148;8.204;2022-08-30T14:45:10;58.96;53.66;76.14;;
49215;Laerm;45943;53.148;8.204;2022-08-30T14:47:36;60.67;54.86;73.58;;
49215;Laerm;45943;53.148;8.204;2022-08-30T14:50:03;61.48;54.93;77.04;;
49215;Laerm;45943;53.148;8.204;2022-08-30T14:52:30;60.08;55.83;63.92;;
49215;Laerm;45943;53.148;8.204;2022-08-30T14:55:00;60.23;55.17;67.47;;
49215;Laerm;45943;53.148;8.204;2022-08-30T14:57:26;62.56;57.06;74.02;;
49215;Laerm;45943;53.148;8.204;2022-08-30T14:59:52;62.18;55.24;75.08;;
49215;Laerm;45943;53.148;8.204;2022-08-30T15:02:18;62.05;56.16;72.40;;
49215;Laerm;45943;53.148;8.204;2022-08-30T15:04:44;62.90;55.73;79.45;;
49215;Laerm;45943;53.148;8.204;2022-08-30T15:07:10;59.41;55.38;68.29;;
49215;Laerm;45943;53.148;8.204;2022-08-30T15:09:36;61.11;55.33;75.14;;
49215;Laerm;45943;53.148;8.204;2022-08-30T15:12:02;59.30;55.12;62.88;;
49215;Laerm;45943;53.148;8.204;2022-08-30T15:14:30;59.10;54.97;63.13;;
49215;Laerm;45943;53.148;8.204;2022-08-30T15:16:57;59.26;55.16;62.76;;
49215;Laerm;45943;53.148;8.204;2022-08-30T15:19:24;61.10;55.16;72.71;;
49215;Laerm;45943;53.148;8.204;2022-08-30T15:21:51;60.39;48.56;80.10;;
49215;Laerm;45943;53.148;8.204;2022-08-30T15:24:21;50.79;39.81;66.09;;
49215;Laerm;45943;53.148;8.204;2022-08-30T15:26:47;63.23;47.78;74.07;;